sensor_id;sensor_type;location;lat;lon;timestamp;P1;durP1;ratioP1;P2;durP2;ratioP2
53833;SDS011;39735;51.432;5.482;2022-10-31T00:00:53;30.63;;;12.43;;
53833;SDS011;39735;51.432;5.482;2022-10-31T00:03:19;31.15;;;14.20;;
53833;SDS011;39735;51.432;5.482;2022-10-31T00:05:45;29.98;;;15.18;;
53833;SDS011;39735;51.432;5.482;2022-10-31T00:08:12;38.58;;;15.00;;
53833;SDS011;39735;51.432;5.482;2022-10-31T00:10:38;25.48;;;11.25;;
53833;SDS011;39735;51.432;5.482;2022-10-31T00:13:04;25.88;;;13.38;;
53833;SDS011;39735;51.432;5.482;2022-10-31T00:15:31;32.95;;;12.18;;
53833;SDS011;39735;51.432;5.482;2022-10-31T00:17:58;37.92;;;14.77;;
53833;SDS011;39735;51.432;5.482;2022-10-31T00:20:23;39.90;;;14.38;;
53833;SDS011;39735;51.432;5.482;2022-10-31T00:22:49;35.30;;;13.57;;
53833;SDS011;39735;51.432;5.482;2022-10-31T00:25:14;36.42;;;14.38;;
53833;SDS011;39735;51.432;5.482;2022-10-31T00:27:39;35.80;;;12.63;;
53833;SDS011;39735;51.432;5.482;2022-10-31T00:30:05;33.92;;;13.38;;
53833;SDS011;39735;51.432;5.482;2022-10-31T00:32:31;26.23;;;11.30;;
53833;SDS011;39735;51.432;5.482;2022-10-31T00:34:56;37.33;;;14.75;;
53833;SDS011;39735;51.432;5.482;2022-10-31T00:37:21;35.13;;;14.27;;
53833;SDS011;39735;51.432;5.482;2022-10-31T00:39:47;33.38;;;14.60;;
53833;SDS011;39735;51.432;5.482;2022-10-31T00:42:14;44.22;;;14.60;;
53833;SDS011;39735;51.432;5.482;2022-10-31T00:44:40;35.60;;;13.00;;
53833;SDS011;39735;51.432;5.482;2022-10-31T00:47:05;33.30;;;15.25;;
53833;SDS011;39735;51.432;5.482;2022-10-31T00:49:30;43.97;;;16.90;;
53833;SDS011;39735;51.432;5.482;2022-10-31T00:51:56;28.50;;;14.13;;
53833;SDS011;39735;51.432;5.482;2022-10-31T00:54:21;29.15;;;13.43;;
53833;SDS011;39735;51.432;5.482;2022-10-31T00:56:46;29.42;;;14.20;;
53833;SDS011;39735;51.432;5.482;2022-10-31T00:59:12;28.60;;;14.07;;
53833;SDS011;39735;51.432;5.482;2022-10-31T01:01:37;26.08;;;13.25;;
53833;SDS011;39735;51.432;5.482;2022-10-31T01:04:03;21.00;;;13.90;;
53833;SDS011;39735;51.432;5.482;2022-10-31T01:06:28;28.00;;;14.32;;
53833;SDS011;39735;51.432;5.482;2022-10-31T01:08:53;40.83;;;14.32;;
53833;SDS011;39735;51.432;5.482;2022-10-31T01:11:20;23.83;;;13.05;;
53833;SDS011;39735;51.432;5.482;2022-10-31T01:13:51;20.38;;;12.15;;
53833;SDS011;39735;51.432;5.482;2022-10-31T01:16:18;21.17;;;14.77;;
53833;SDS011;39735;51.432;5.482;2022-10-31T01:18:45;33.33;;;14.20;;
53833;SDS011;39735;51.432;5.482;2022-10-31T01:21:12;41.60;;;14.15;;
53833;SDS011;39735;51.432;5.482;2022-10-31T01:23:39;36.42;;;14.30;;
53833;SDS011;39735;51.432;5.482;2022-10-31T01:26:08;34.75;;;13.35;;
53833;SDS011;39735;51.432;5.482;2022-10-31T01:28:36;36.58;;;16.23;;
53833;SDS011;39735;51.432;5.482;2022-10-31T01:31:04;29.48;;;16.77;;
53833;SDS011;39735;51.432;5.482;2022-10-31T01:33:31;29.50;;;12.95;;
53833;SDS011;39735;51.432;5.482;2022-10-31T01:35:57;30.15;;;12.80;;
53833;SDS011;39735;51.432;5.482;2022-10-31T01:38:22;33.78;;;13.00;;
53833;SDS011;39735;51.432;5.482;2022-10-31T01:40:48;45.97;;;13.57;;
53833;SDS011;39735;51.432;5.482;2022-10-31T01:43:14;34.40;;;13.40;;
53833;SDS011;39735;51.432;5.482;2022-10-31T01:45:40;28.92;;;14.80;;
53833;SDS011;39735;51.432;5.482;2022-10-31T01:48:10;20.20;;;12.77;;
53833;SDS011;39735;51.432;5.482;2022-10-31T01:50:38;25.33;;;14.13;;
53833;SDS011;39735;51.432;5.482;2022-10-31T01:53:04;24.80;;;12.65;;
53833;SDS011;39735;51.432;5.482;2022-10-31T01:55:32;26.95;;;14.40;;
53833;SDS011;39735;51.432;5.482;2022-10-31T01:58:02;27.05;;;15.65;;
53833;SDS011;39735;51.432;5.482;2022-10-31T02:00:31;22.50;;;13.15;;
53833;SDS011;39735;51.432;5.482;2022-10-31T02:02:56;41.78;;;13.63;;
53833;SDS011;39735;51.432;5.482;2022-10-31T02:05:23;27.20;;;14.57;;
53833;SDS011;39735;51.432;5.482;2022-10-31T02:08:03;32.47;;;13.73;;
53833;SDS011;39735;51.432;5.482;2022-10-31T02:10:36;37.35;;;13.52;;
53833;SDS011;39735;51.432;5.482;2022-10-31T02:13:03;32.60;;;14.90;;
53833;SDS011;39735;51.432;5.482;2022-10-31T02:15:30;42.63;;;14.60;;
53833;SDS011;39735;51.432;5.482;2022-10-31T02:17:56;25.83;;;13.55;;
53833;SDS011;39735;51.432;5.482;2022-10-31T02:20:23;26.70;;;13.50;;
53833;SDS011;39735;51.432;5.482;2022-10-31T02:31:03;35.30;;;14.75;;
53833;SDS011;39735;51.432;5.482;2022-10-31T02:49:38;32.03;;;17.80;;
53833;SDS011;39735;51.432;5.482;2022-10-31T02:52:17;40.67;;;14.52;;
53833;SDS011;39735;51.432;5.482;2022-10-31T02:54:52;33.00;;;13.25;;
53833;SDS011;39735;51.432;5.482;2022-10-31T02:57:36;30.50;;;15.73;;
53833;SDS011;39735;51.432;5.482;2022-10-31T03:00:06;46.97;;;15.63;;
53833;SDS011;39735;51.432;5.482;2022-10-31T03:19:03;27.90;;;15.73;;
53833;SDS011;39735;51.432;5.482;2022-10-31T03:24:10;36.25;;;17.58;;
53833;SDS011;39735;51.432;5.482;2022-10-31T03:26:38;47.47;;;19.10;;
53833;SDS011;39735;51.432;5.482;2022-10-31T03:29:06;40.53;;;19.63;;
53833;SDS011;39735;51.432;5.482;2022-10-31T03:31:36;44.00;;;18.90;;
53833;SDS011;39735;51.432;5.482;2022-10-31T03:34:04;40.78;;;17.92;;
53833;SDS011;39735;51.432;5.482;2022-10-31T03:36:31;26.98;;;18.38;;
53833;SDS011;39735;51.432;5.482;2022-10-31T03:38:58;36.28;;;19.52;;
53833;SDS011;39735;51.432;5.482;2022-10-31T03:41:27;65.70;;;19.15;;
53833;SDS011;39735;51.432;5.482;2022-10-31T03:43:55;47.60;;;21.70;;
53833;SDS011;39735;51.432;5.482;2022-10-31T03:46:23;37.88;;;21.20;;
53833;SDS011;39735;51.432;5.482;2022-10-31T03:48:49;39.95;;;21.08;;
53833;SDS011;39735;51.432;5.482;2022-10-31T03:51:15;70.07;;;22.42;;
53833;SDS011;39735;51.432;5.482;2022-10-31T03:54:07;39.13;;;22.10;;
53833;SDS011;39735;51.432;5.482;2022-10-31T03:56:59;61.47;;;23.38;;
53833;SDS011;39735;51.432;5.482;2022-10-31T03:59:26;52.05;;;24.98;;
53833;SDS011;39735;51.432;5.482;2022-10-31T04:01:57;47.60;;;22.20;;
53833;SDS011;39735;51.432;5.482;2022-10-31T04:04:23;29.05;;;19.60;;
53833;SDS011;39735;51.432;5.482;2022-10-31T04:06:50;37.60;;;20.45;;
53833;SDS011;39735;51.432;5.482;2022-10-31T04:09:15;30.15;;;18.95;;
53833;SDS011;39735;51.432;5.482;2022-10-31T04:11:42;57.45;;;22.52;;
53833;SDS011;39735;51.432;5.482;2022-10-31T04:14:11;47.67;;;23.17;;
53833;SDS011;39735;51.432;5.482;2022-10-31T04:16:38;68.53;;;24.50;;
53833;SDS011;39735;51.432;5.482;2022-10-31T04:19:05;47.67;;;21.95;;
53833;SDS011;39735;51.432;5.482;2022-10-31T04:21:30;40.95;;;21.60;;
53833;SDS011;39735;51.432;5.482;2022-10-31T04:23:56;38.60;;;21.73;;
53833;SDS011;39735;51.432;5.482;2022-10-31T04:26:21;38.42;;;21.27;;
53833;SDS011;39735;51.432;5.482;2022-10-31T04:28:47;38.25;;;22.75;;
53833;SDS011;39735;51.432;5.482;2022-10-31T04:31:12;42.95;;;24.80;;
53833;SDS011;39735;51.432;5.482;2022-10-31T04:33:38;38.30;;;21.40;;
53833;SDS011;39735;51.432;5.482;2022-10-31T04:36:03;37.97;;;21.00;;
53833;SDS011;39735;51.432;5.482;2022-10-31T04:38:32;44.58;;;26.00;;
53833;SDS011;39735;51.432;5.482;2022-10-31T04:40:58;45.42;;;23.88;;
53833;SDS011;39735;51.432;5.482;2022-10-31T04:43:23;38.22;;;22.73;;
53833;SDS011;39735;51.432;5.482;2022-10-31T04:45:49;45.42;;;24.50;;
53833;SDS011;39735;51.432;5.482;2022-10-31T04:48:14;49.13;;;21.85;;
53833;SDS011;39735;51.432;5.482;2022-10-31T04:50:40;50.97;;;22.42;;
53833;SDS011;39735;51.432;5.482;2022-10-31T04:53:05;52.63;;;20.73;;
53833;SDS011;39735;51.432;5.482;2022-10-31T04:55:31;50.10;;;22.95;;
53833;SDS011;39735;51.432;5.482;2022-10-31T04:57:56;59.28;;;23.85;;
53833;SDS011;39735;51.432;5.482;2022-10-31T05:00:21;58.67;;;24.33;;
53833;SDS011;39735;51.432;5.482;2022-10-31T05:02:51;46.53;;;23.80;;
53833;SDS011;39735;51.432;5.482;2022-10-31T05:05:22;59.33;;;23.80;;
53833;SDS011;39735;51.432;5.482;2022-10-31T05:07:56;55.65;;;22.98;;
53833;SDS011;39735;51.432;5.482;2022-10-31T05:10:23;37.13;;;21.02;;
53833;SDS011;39735;51.432;5.482;2022-10-31T05:12:50;37.55;;;21.23;;
53833;SDS011;39735;51.432;5.482;2022-10-31T05:15:18;51.67;;;26.10;;
53833;SDS011;39735;51.432;5.482;2022-10-31T05:17:44;34.88;;;21.58;;
53833;SDS011;39735;51.432;5.482;2022-10-31T05:20:10;36.42;;;20.42;;
53833;SDS011;39735;51.432;5.482;2022-10-31T05:22:37;38.67;;;22.83;;
53833;SDS011;39735;51.432;5.482;2022-10-31T05:25:06;40.60;;;21.77;;
53833;SDS011;39735;51.432;5.482;2022-10-31T05:27:32;46.60;;;22.25;;
53833;SDS011;39735;51.432;5.482;2022-10-31T05:29:57;72.18;;;23.70;;
53833;SDS011;39735;51.432;5.482;2022-10-31T05:32:22;54.72;;;22.63;;
53833;SDS011;39735;51.432;5.482;2022-10-31T05:34:48;46.92;;;24.45;;
53833;SDS011;39735;51.432;5.482;2022-10-31T05:37:13;43.17;;;23.40;;
53833;SDS011;39735;51.432;5.482;2022-10-31T05:39:38;38.83;;;22.40;;
53833;SDS011;39735;51.432;5.482;2022-10-31T05:42:04;48.50;;;22.73;;
53833;SDS011;39735;51.432;5.482;2022-10-31T05:44:29;48.22;;;24.02;;
53833;SDS011;39735;51.432;5.482;2022-10-31T05:46:55;56.42;;;22.92;;
53833;SDS011;39735;51.432;5.482;2022-10-31T05:49:20;32.65;;;21.38;;
53833;SDS011;39735;51.432;5.482;2022-10-31T05:51:45;54.13;;;25.20;;
53833;SDS011;39735;51.432;5.482;2022-10-31T05:54:11;56.25;;;24.58;;
53833;SDS011;39735;51.432;5.482;2022-10-31T05:56:36;47.00;;;24.88;;
53833;SDS011;39735;51.432;5.482;2022-10-31T05:59:01;59.08;;;25.23;;
53833;SDS011;39735;51.432;5.482;2022-10-31T06:01:27;45.47;;;23.90;;
53833;SDS011;39735;51.432;5.482;2022-10-31T06:03:52;71.10;;;26.30;;
53833;SDS011;39735;51.432;5.482;2022-10-31T06:06:17;28.02;;;21.48;;
53833;SDS011;39735;51.432;5.482;2022-10-31T06:08:43;36.65;;;23.48;;
53833;SDS011;39735;51.432;5.482;2022-10-31T06:11:08;47.58;;;24.77;;
53833;SDS011;39735;51.432;5.482;2022-10-31T06:13:33;61.50;;;24.42;;
53833;SDS011;39735;51.432;5.482;2022-10-31T06:15:59;41.25;;;24.05;;
53833;SDS011;39735;51.432;5.482;2022-10-31T06:18:24;61.80;;;23.17;;
53833;SDS011;39735;51.432;5.482;2022-10-31T06:20:49;41.78;;;24.25;;
53833;SDS011;39735;51.432;5.482;2022-10-31T06:23:15;42.30;;;25.85;;
53833;SDS011;39735;51.432;5.482;2022-10-31T06:25:41;51.80;;;25.40;;
53833;SDS011;39735;51.432;5.482;2022-10-31T06:28:06;64.50;;;26.60;;
53833;SDS011;39735;51.432;5.482;2022-10-31T06:30:32;51.83;;;25.58;;
53833;SDS011;39735;51.432;5.482;2022-10-31T06:33:03;46.90;;;24.85;;
53833;SDS011;39735;51.432;5.482;2022-10-31T06:35:30;47.08;;;25.40;;
53833;SDS011;39735;51.432;5.482;2022-10-31T06:37:56;56.70;;;26.33;;
53833;SDS011;39735;51.432;5.482;2022-10-31T06:40:21;56.28;;;26.67;;
53833;SDS011;39735;51.432;5.482;2022-10-31T06:42:47;55.67;;;27.15;;
53833;SDS011;39735;51.432;5.482;2022-10-31T06:45:12;48.88;;;27.63;;
53833;SDS011;39735;51.432;5.482;2022-10-31T06:47:37;44.15;;;25.42;;
53833;SDS011;39735;51.432;5.482;2022-10-31T06:50:03;46.15;;;28.05;;
53833;SDS011;39735;51.432;5.482;2022-10-31T06:52:29;44.78;;;25.67;;
53833;SDS011;39735;51.432;5.482;2022-10-31T06:54:54;51.67;;;24.90;;
53833;SDS011;39735;51.432;5.482;2022-10-31T06:57:19;49.25;;;26.83;;
53833;SDS011;39735;51.432;5.482;2022-10-31T06:59:45;55.65;;;28.75;;
53833;SDS011;39735;51.432;5.482;2022-10-31T07:02:10;45.75;;;26.30;;
53833;SDS011;39735;51.432;5.482;2022-10-31T07:04:36;48.78;;;26.00;;
53833;SDS011;39735;51.432;5.482;2022-10-31T07:07:03;41.13;;;25.38;;
53833;SDS011;39735;51.432;5.482;2022-10-31T07:09:28;54.95;;;25.73;;
53833;SDS011;39735;51.432;5.482;2022-10-31T07:11:54;40.83;;;23.17;;
53833;SDS011;39735;51.432;5.482;2022-10-31T07:14:19;59.33;;;25.25;;
53833;SDS011;39735;51.432;5.482;2022-10-31T07:16:48;61.58;;;27.42;;
53833;SDS011;39735;51.432;5.482;2022-10-31T07:19:15;45.92;;;26.10;;
53833;SDS011;39735;51.432;5.482;2022-10-31T07:21:40;59.50;;;30.40;;
53833;SDS011;39735;51.432;5.482;2022-10-31T07:24:06;45.58;;;29.02;;
53833;SDS011;39735;51.432;5.482;2022-10-31T07:26:31;61.92;;;29.70;;
53833;SDS011;39735;51.432;5.482;2022-10-31T07:28:56;58.55;;;31.55;;
53833;SDS011;39735;51.432;5.482;2022-10-31T07:31:22;58.20;;;30.27;;
53833;SDS011;39735;51.432;5.482;2022-10-31T07:33:47;58.80;;;33.60;;
53833;SDS011;39735;51.432;5.482;2022-10-31T07:36:13;62.33;;;30.98;;
53833;SDS011;39735;51.432;5.482;2022-10-31T07:38:38;54.88;;;31.27;;
53833;SDS011;39735;51.432;5.482;2022-10-31T07:41:04;62.50;;;32.00;;
53833;SDS011;39735;51.432;5.482;2022-10-31T07:43:29;61.60;;;31.23;;
53833;SDS011;39735;51.432;5.482;2022-10-31T07:45:55;65.53;;;32.05;;
53833;SDS011;39735;51.432;5.482;2022-10-31T07:48:20;52.15;;;29.25;;
53833;SDS011;39735;51.432;5.482;2022-10-31T07:50:46;57.60;;;31.08;;
53833;SDS011;39735;51.432;5.482;2022-10-31T07:53:12;67.80;;;31.40;;
53833;SDS011;39735;51.432;5.482;2022-10-31T07:55:38;73.47;;;33.63;;
53833;SDS011;39735;51.432;5.482;2022-10-31T08:00:30;55.33;;;31.83;;
53833;SDS011;39735;51.432;5.482;2022-10-31T08:03:03;71.97;;;34.30;;
53833;SDS011;39735;51.432;5.482;2022-10-31T08:05:30;61.40;;;31.45;;
53833;SDS011;39735;51.432;5.482;2022-10-31T08:07:56;62.60;;;33.75;;
53833;SDS011;39735;51.432;5.482;2022-10-31T08:10:22;52.35;;;32.03;;
53833;SDS011;39735;51.432;5.482;2022-10-31T08:12:54;69.43;;;36.50;;
53833;SDS011;39735;51.432;5.482;2022-10-31T08:15:23;81.85;;;36.40;;
53833;SDS011;39735;51.432;5.482;2022-10-31T08:17:49;76.68;;;36.92;;
53833;SDS011;39735;51.432;5.482;2022-10-31T08:20:14;87.18;;;35.92;;
53833;SDS011;39735;51.432;5.482;2022-10-31T08:22:40;84.82;;;38.03;;
53833;SDS011;39735;51.432;5.482;2022-10-31T08:25:05;81.22;;;38.00;;
53833;SDS011;39735;51.432;5.482;2022-10-31T08:27:31;74.10;;;40.83;;
53833;SDS011;39735;51.432;5.482;2022-10-31T08:29:56;72.18;;;42.30;;
53833;SDS011;39735;51.432;5.482;2022-10-31T08:32:21;66.50;;;37.03;;
53833;SDS011;39735;51.432;5.482;2022-10-31T08:34:47;66.10;;;37.83;;
53833;SDS011;39735;51.432;5.482;2022-10-31T08:37:12;81.40;;;36.53;;
53833;SDS011;39735;51.432;5.482;2022-10-31T08:39:37;66.38;;;38.80;;
53833;SDS011;39735;51.432;5.482;2022-10-31T08:42:03;79.32;;;41.80;;
53833;SDS011;39735;51.432;5.482;2022-10-31T08:44:28;60.13;;;34.75;;
53833;SDS011;39735;51.432;5.482;2022-10-31T08:46:53;63.17;;;34.35;;
53833;SDS011;39735;51.432;5.482;2022-10-31T08:49:19;69.47;;;36.85;;
53833;SDS011;39735;51.432;5.482;2022-10-31T08:51:47;48.13;;;32.35;;
53833;SDS011;39735;51.432;5.482;2022-10-31T08:54:13;66.38;;;35.70;;
53833;SDS011;39735;51.432;5.482;2022-10-31T08:56:38;76.85;;;37.95;;
53833;SDS011;39735;51.432;5.482;2022-10-31T08:59:03;67.00;;;34.45;;
53833;SDS011;39735;51.432;5.482;2022-10-31T09:01:29;70.53;;;37.08;;
53833;SDS011;39735;51.432;5.482;2022-10-31T09:03:54;73.55;;;37.20;;
53833;SDS011;39735;51.432;5.482;2022-10-31T09:06:20;60.22;;;33.42;;
53833;SDS011;39735;51.432;5.482;2022-10-31T09:08:45;77.40;;;42.17;;
53833;SDS011;39735;51.432;5.482;2022-10-31T09:11:10;65.85;;;37.30;;
53833;SDS011;39735;51.432;5.482;2022-10-31T09:13:36;60.45;;;34.88;;
53833;SDS011;39735;51.432;5.482;2022-10-31T09:16:01;71.70;;;36.38;;
53833;SDS011;39735;51.432;5.482;2022-10-31T09:18:27;75.50;;;37.15;;
53833;SDS011;39735;51.432;5.482;2022-10-31T09:20:59;90.43;;;41.35;;
53833;SDS011;39735;51.432;5.482;2022-10-31T09:23:25;110.43;;;44.85;;
53833;SDS011;39735;51.432;5.482;2022-10-31T09:25:51;88.00;;;40.60;;
53833;SDS011;39735;51.432;5.482;2022-10-31T09:28:18;105.45;;;41.53;;
53833;SDS011;39735;51.432;5.482;2022-10-31T09:30:48;64.93;;;37.15;;
53833;SDS011;39735;51.432;5.482;2022-10-31T09:33:15;68.78;;;41.67;;
53833;SDS011;39735;51.432;5.482;2022-10-31T09:35:40;80.70;;;40.63;;
53833;SDS011;39735;51.432;5.482;2022-10-31T09:38:08;73.03;;;40.42;;
53833;SDS011;39735;51.432;5.482;2022-10-31T09:40:36;107.47;;;44.17;;
53833;SDS011;39735;51.432;5.482;2022-10-31T09:43:07;84.43;;;42.65;;
53833;SDS011;39735;51.432;5.482;2022-10-31T09:48:44;97.05;;;47.15;;
53833;SDS011;39735;51.432;5.482;2022-10-31T09:51:19;106.30;;;43.50;;
53833;SDS011;39735;51.432;5.482;2022-10-31T09:53:59;93.97;;;41.85;;
53833;SDS011;39735;51.432;5.482;2022-10-31T09:56:35;92.50;;;50.60;;
53833;SDS011;39735;51.432;5.482;2022-10-31T09:59:02;86.90;;;43.55;;
53833;SDS011;39735;51.432;5.482;2022-10-31T10:01:33;97.80;;;44.35;;
53833;SDS011;39735;51.432;5.482;2022-10-31T10:04:43;131.80;;;48.00;;
53833;SDS011;39735;51.432;5.482;2022-10-31T10:10:00;106.97;;;49.55;;
53833;SDS011;39735;51.432;5.482;2022-10-31T10:12:37;99.82;;;49.38;;
53833;SDS011;39735;51.432;5.482;2022-10-31T10:15:42;104.18;;;48.88;;
53833;SDS011;39735;51.432;5.482;2022-10-31T10:21:32;126.80;;;52.55;;
53833;SDS011;39735;51.432;5.482;2022-10-31T10:23:54;103.00;;;50.60;;
53833;SDS011;39735;51.432;5.482;2022-10-31T10:26:29;121.25;;;56.33;;
53833;SDS011;39735;51.432;5.482;2022-10-31T10:29:22;123.78;;;56.50;;
53833;SDS011;39735;51.432;5.482;2022-10-31T10:31:50;131.55;;;56.92;;
53833;SDS011;39735;51.432;5.482;2022-10-31T10:34:21;112.93;;;51.90;;
53833;SDS011;39735;51.432;5.482;2022-10-31T10:36:50;126.07;;;53.70;;
53833;SDS011;39735;51.432;5.482;2022-10-31T10:39:20;106.93;;;53.45;;
53833;SDS011;39735;51.432;5.482;2022-10-31T10:41:49;103.50;;;50.22;;
53833;SDS011;39735;51.432;5.482;2022-10-31T10:44:34;148.98;;;53.80;;
53833;SDS011;39735;51.432;5.482;2022-10-31T10:47:21;96.55;;;51.78;;
53833;SDS011;39735;51.432;5.482;2022-10-31T10:50:16;120.30;;;51.95;;
53833;SDS011;39735;51.432;5.482;2022-10-31T10:52:48;130.10;;;52.88;;
53833;SDS011;39735;51.432;5.482;2022-10-31T10:58:02;96.07;;;47.50;;
53833;SDS011;39735;51.432;5.482;2022-10-31T11:00:30;104.85;;;47.78;;
53833;SDS011;39735;51.432;5.482;2022-10-31T11:02:56;109.90;;;48.42;;
53833;SDS011;39735;51.432;5.482;2022-10-31T11:05:55;134.40;;;50.30;;
53833;SDS011;39735;51.432;5.482;2022-10-31T11:11:02;107.07;;;45.78;;
53833;SDS011;39735;51.432;5.482;2022-10-31T11:13:32;102.85;;;46.03;;
53833;SDS011;39735;51.432;5.482;2022-10-31T11:16:02;121.95;;;48.53;;
53833;SDS011;39735;51.432;5.482;2022-10-31T11:18:31;99.38;;;48.97;;
53833;SDS011;39735;51.432;5.482;2022-10-31T11:20:59;124.55;;;50.38;;
53833;SDS011;39735;51.432;5.482;2022-10-31T11:23:27;116.85;;;47.13;;
53833;SDS011;39735;51.432;5.482;2022-10-31T11:25:57;99.63;;;43.28;;
53833;SDS011;39735;51.432;5.482;2022-10-31T11:28:22;85.53;;;41.90;;
53833;SDS011;39735;51.432;5.482;2022-10-31T11:30:49;89.38;;;41.47;;
53833;SDS011;39735;51.432;5.482;2022-10-31T11:33:27;94.63;;;44.72;;
53833;SDS011;39735;51.432;5.482;2022-10-31T11:35:56;101.38;;;41.95;;
53833;SDS011;39735;51.432;5.482;2022-10-31T11:38:23;97.68;;;43.05;;
53833;SDS011;39735;51.432;5.482;2022-10-31T11:40:52;88.60;;;42.67;;
53833;SDS011;39735;51.432;5.482;2022-10-31T11:43:33;104.80;;;42.58;;
53833;SDS011;39735;51.432;5.482;2022-10-31T11:45:58;100.78;;;42.58;;
53833;SDS011;39735;51.432;5.482;2022-10-31T11:48:24;97.65;;;43.15;;
53833;SDS011;39735;51.432;5.482;2022-10-31T11:50:51;89.32;;;38.67;;
53833;SDS011;39735;51.432;5.482;2022-10-31T11:53:26;91.18;;;38.33;;
53833;SDS011;39735;51.432;5.482;2022-10-31T11:56:10;94.18;;;40.72;;
53833;SDS011;39735;51.432;5.482;2022-10-31T12:01:03;71.50;;;41.47;;
53833;SDS011;39735;51.432;5.482;2022-10-31T12:03:35;84.55;;;39.80;;
53833;SDS011;39735;51.432;5.482;2022-10-31T12:06:20;94.97;;;43.78;;
53833;SDS011;39735;51.432;5.482;2022-10-31T12:08:48;93.45;;;43.63;;
53833;SDS011;39735;51.432;5.482;2022-10-31T12:16:59;77.20;;;36.13;;
53833;SDS011;39735;51.432;5.482;2022-10-31T12:25:11;84.82;;;32.78;;
53833;SDS011;39735;51.432;5.482;2022-10-31T12:30:18;61.13;;;28.92;;
53833;SDS011;39735;51.432;5.482;2022-10-31T12:46:47;79.13;;;27.92;;
53833;SDS011;39735;51.432;5.482;2022-10-31T12:49:26;61.95;;;24.35;;
53833;SDS011;39735;51.432;5.482;2022-10-31T13:06:48;60.58;;;22.27;;
53833;SDS011;39735;51.432;5.482;2022-10-31T13:09:16;54.97;;;23.70;;
53833;SDS011;39735;51.432;5.482;2022-10-31T13:11:49;58.03;;;23.85;;
53833;SDS011;39735;51.432;5.482;2022-10-31T13:16:50;47.50;;;20.33;;
53833;SDS011;39735;51.432;5.482;2022-10-31T13:19:17;62.67;;;21.33;;
53833;SDS011;39735;51.432;5.482;2022-10-31T13:22:02;95.63;;;25.05;;
53833;SDS011;39735;51.432;5.482;2022-10-31T13:24:36;56.22;;;23.73;;
53833;SDS011;39735;51.432;5.482;2022-10-31T13:27:13;57.58;;;22.17;;
53833;SDS011;39735;51.432;5.482;2022-10-31T13:29:49;46.83;;;21.50;;
53833;SDS011;39735;51.432;5.482;2022-10-31T13:32:20;71.47;;;22.13;;
53833;SDS011;39735;51.432;5.482;2022-10-31T13:34:46;57.05;;;24.92;;
53833;SDS011;39735;51.432;5.482;2022-10-31T13:37:37;61.05;;;23.75;;
53833;SDS011;39735;51.432;5.482;2022-10-31T13:45:27;61.88;;;24.83;;
53833;SDS011;39735;51.432;5.482;2022-10-31T13:47:57;82.75;;;23.85;;
53833;SDS011;39735;51.432;5.482;2022-10-31T13:50:54;63.58;;;25.85;;
53833;SDS011;39735;51.432;5.482;2022-10-31T13:53:21;57.45;;;25.38;;
53833;SDS011;39735;51.432;5.482;2022-10-31T13:55:48;57.53;;;23.02;;
53833;SDS011;39735;51.432;5.482;2022-10-31T13:58:25;64.15;;;22.27;;
53833;SDS011;39735;51.432;5.482;2022-10-31T14:00:59;58.88;;;23.58;;
53833;SDS011;39735;51.432;5.482;2022-10-31T14:03:24;50.28;;;21.70;;
53833;SDS011;39735;51.432;5.482;2022-10-31T14:05:53;53.97;;;21.45;;
53833;SDS011;39735;51.432;5.482;2022-10-31T14:08:20;44.22;;;19.52;;
53833;SDS011;39735;51.432;5.482;2022-10-31T14:10:48;73.25;;;20.30;;
53833;SDS011;39735;51.432;5.482;2022-10-31T14:13:20;43.75;;;20.42;;
53833;SDS011;39735;51.432;5.482;2022-10-31T14:15:52;54.50;;;18.90;;
53833;SDS011;39735;51.432;5.482;2022-10-31T14:18:22;51.08;;;20.63;;
53833;SDS011;39735;51.432;5.482;2022-10-31T14:20:49;42.67;;;17.95;;
53833;SDS011;39735;51.432;5.482;2022-10-31T14:28:53;64.47;;;20.25;;
53833;SDS011;39735;51.432;5.482;2022-10-31T14:31:27;34.97;;;19.13;;
53833;SDS011;39735;51.432;5.482;2022-10-31T14:33:59;44.95;;;18.73;;
53833;SDS011;39735;51.432;5.482;2022-10-31T14:36:44;37.03;;;16.50;;
53833;SDS011;39735;51.432;5.482;2022-10-31T14:39:17;52.42;;;19.88;;
53833;SDS011;39735;51.432;5.482;2022-10-31T14:41:58;45.58;;;18.42;;
53833;SDS011;39735;51.432;5.482;2022-10-31T14:52:24;43.25;;;17.25;;
53833;SDS011;39735;51.432;5.482;2022-10-31T14:54:51;67.28;;;20.52;;
53833;SDS011;39735;51.432;5.482;2022-10-31T14:57:20;50.30;;;17.40;;
53833;SDS011;39735;51.432;5.482;2022-10-31T14:59:50;41.95;;;20.17;;
53833;SDS011;39735;51.432;5.482;2022-10-31T15:02:19;46.65;;;16.73;;
53833;SDS011;39735;51.432;5.482;2022-10-31T15:04:49;51.20;;;19.05;;
53833;SDS011;39735;51.432;5.482;2022-10-31T15:07:17;31.42;;;16.55;;
53833;SDS011;39735;51.432;5.482;2022-10-31T15:09:58;43.28;;;16.67;;
53833;SDS011;39735;51.432;5.482;2022-10-31T15:12:32;38.20;;;15.25;;
53833;SDS011;39735;51.432;5.482;2022-10-31T15:17:41;41.88;;;16.15;;
53833;SDS011;39735;51.432;5.482;2022-10-31T15:20:10;54.80;;;19.30;;
53833;SDS011;39735;51.432;5.482;2022-10-31T15:22:36;29.02;;;14.27;;
53833;SDS011;39735;51.432;5.482;2022-10-31T15:25:02;49.97;;;18.48;;
53833;SDS011;39735;51.432;5.482;2022-10-31T15:27:28;55.45;;;18.88;;
53833;SDS011;39735;51.432;5.482;2022-10-31T15:29:55;66.63;;;18.05;;
53833;SDS011;39735;51.432;5.482;2022-10-31T15:32:25;58.50;;;18.67;;
53833;SDS011;39735;51.432;5.482;2022-10-31T15:34:52;57.22;;;16.35;;
53833;SDS011;39735;51.432;5.482;2022-10-31T15:37:19;74.18;;;16.98;;
53833;SDS011;39735;51.432;5.482;2022-10-31T15:39:46;53.13;;;17.38;;
53833;SDS011;39735;51.432;5.482;2022-10-31T15:44:59;37.00;;;18.25;;
53833;SDS011;39735;51.432;5.482;2022-10-31T15:47:26;36.70;;;16.08;;
53833;SDS011;39735;51.432;5.482;2022-10-31T15:49:54;37.03;;;14.07;;
53833;SDS011;39735;51.432;5.482;2022-10-31T15:57:39;44.03;;;14.95;;
53833;SDS011;39735;51.432;5.482;2022-10-31T16:00:06;40.28;;;15.75;;
53833;SDS011;39735;51.432;5.482;2022-10-31T16:02:32;36.25;;;13.70;;
53833;SDS011;39735;51.432;5.482;2022-10-31T16:04:58;35.95;;;15.80;;
53833;SDS011;39735;51.432;5.482;2022-10-31T16:07:26;53.78;;;16.90;;
53833;SDS011;39735;51.432;5.482;2022-10-31T16:09:56;35.30;;;13.60;;
53833;SDS011;39735;51.432;5.482;2022-10-31T16:12:24;33.58;;;13.80;;
53833;SDS011;39735;51.432;5.482;2022-10-31T16:14:53;47.85;;;15.30;;
53833;SDS011;39735;51.432;5.482;2022-10-31T16:17:20;40.83;;;16.48;;
53833;SDS011;39735;51.432;5.482;2022-10-31T16:19:49;33.85;;;13.55;;
53833;SDS011;39735;51.432;5.482;2022-10-31T16:22:34;41.55;;;13.40;;
53833;SDS011;39735;51.432;5.482;2022-10-31T16:25:08;58.80;;;15.27;;
53833;SDS011;39735;51.432;5.482;2022-10-31T16:27:35;32.53;;;13.00;;
53833;SDS011;39735;51.432;5.482;2022-10-31T16:30:03;42.42;;;14.25;;
53833;SDS011;39735;51.432;5.482;2022-10-31T16:35:49;34.15;;;12.00;;
53833;SDS011;39735;51.432;5.482;2022-10-31T16:38:15;32.97;;;13.00;;
53833;SDS011;39735;51.432;5.482;2022-10-31T16:40:41;53.63;;;18.45;;
53833;SDS011;39735;51.432;5.482;2022-10-31T16:43:13;73.05;;;17.75;;
53833;SDS011;39735;51.432;5.482;2022-10-31T16:48:14;34.53;;;14.75;;
53833;SDS011;39735;51.432;5.482;2022-10-31T16:50:41;57.42;;;18.55;;
53833;SDS011;39735;51.432;5.482;2022-10-31T16:53:11;67.15;;;17.52;;